Time;durP1;ratioP1;P1;durP2;ratioP2;P2;SDS_P1;SDS_P2;PMS_P1;PMS_P2;Temp;Humidity;BMP_temperature;BMP_pressure;BME280_temperature;BME280_humidity;BME280_pressure;Samples;Min_cycle;Max_cycle;Signal;HPM_P1;HPM_P2
2022/01/31 00:00:43;;;;;;;18.10;5.95;;;;;;;2.81;67.09;100388.28;1087679;54;20038;-80
2022/01/31 00:01:45;;;;;;;19.70;6.75;;;;;;;2.73;67.51;100385.25;1087928;54;20039;-80
2022/01/31 00:02:51;;;;;;;16.25;5.85;;;;;;;2.65;67.69;100383.84;1087824;54;20700;-80
2022/01/31 00:03:52;;;;;;;16.42;5.63;;;;;;;2.63;67.77;100384.88;1087803;54;20033;-81
2022/01/31 00:04:57;;;;;;;20.90;6.15;;;;;;;2.51;68.20;100381.16;1087790;54;20030;-81
2022/01/31 00:05:58;;;;;;;11.27;5.60;;;;;;;2.45;68.46;100384.97;1088245;39;20555;-80
2022/01/31 00:07:03;;;;;;;14.38;5.20;;;;;;;2.51;68.20;100378.50;1087833;54;20039;-80
2022/01/31 00:08:10;;;;;;;14.73;5.15;;;;;;;2.46;68.46;100381.41;1087779;54;20038;-80
2022/01/31 00:09:15;;;;;;;14.90;6.10;;;;;;;2.49;68.62;100372.44;1088395;46;20019;-79
2022/01/31 00:10:27;;;;;;;13.75;5.55;;;;;;;2.46;68.63;100377.88;1087782;54;20054;-81
2022/01/31 00:11:28;;;;;;;12.15;5.32;;;;;;;2.47;68.50;100379.59;1087854;54;20042;-80
2022/01/31 00:12:40;;;;;;;12.20;5.07;;;;;;;2.52;68.58;100382.84;1087855;54;20035;-81
2022/01/31 00:13:54;;;;;;;13.38;5.07;;;;;;;2.53;68.52;100381.91;1087757;54;20021;-81
2022/01/31 00:15:02;;;;;;;15.05;5.93;;;;;;;2.48;68.64;100376.91;1087611;54;20049;-81
2022/01/31 00:16:09;;;;;;;15.82;5.68;;;;;;;2.42;68.92;100357.91;1087701;54;20325;-80
2022/01/31 00:17:12;;;;;;;14.18;5.15;;;;;;;2.55;68.67;100353.63;1087594;54;20046;-80
2022/01/31 00:18:16;;;;;;;14.32;5.50;;;;;;;2.53;68.66;100363.44;1087683;54;20045;-80
2022/01/31 00:19:17;;;;;;;15.05;5.75;;;;;;;2.52;68.91;100356.47;1087753;54;20043;-79
2022/01/31 00:20:22;;;;;;;12.15;5.57;;;;;;;2.58;68.80;100361.38;1088996;46;20046;-81
2022/01/31 00:21:24;;;;;;;17.98;5.50;;;;;;;2.60;68.39;100356.00;1087746;54;20072;-80
2022/01/31 00:22:28;;;;;;;10.90;4.97;;;;;;;2.62;68.51;100360.28;1087789;54;20062;-81
2022/01/31 00:23:32;;;;;;;14.10;5.53;;;;;;;2.67;68.34;100354.75;1088651;39;20532;-80
2022/01/31 00:24:37;;;;;;;17.40;6.22;;;;;;;2.69;68.41;100352.88;1087891;54;20035;-80
2022/01/31 00:25:38;;;;;;;17.52;6.55;;;;;;;2.68;68.33;100356.47;1087819;54;20054;-81
2022/01/31 00:26:42;;;;;;;12.40;5.47;;;;;;;2.73;68.29;100354.41;1087787;54;20143;-80
2022/01/31 00:27:44;;;;;;;15.45;5.40;;;;;;;2.77;68.00;100349.78;1088212;46;20038;-81
2022/01/31 00:28:48;;;;;;;13.25;5.57;;;;;;;2.77;68.32;100349.78;1087644;54;20030;-80
2022/01/31 00:29:50;;;;;;;16.55;5.40;;;;;;;2.64;68.40;100350.50;1087618;54;20049;-81
2022/01/31 00:30:54;;;;;;;13.35;5.63;;;;;;;2.68;68.59;100339.75;1089400;46;20050;-80
2022/01/31 00:31:56;;;;;;;16.42;6.38;;;;;;;2.62;68.35;100327.75;1087706;54;20042;-80
2022/01/31 00:33:00;;;;;;;14.85;5.70;;;;;;;2.68;68.44;100310.72;1087699;54;20074;-80
2022/01/31 00:34:02;;;;;;;11.77;5.53;;;;;;;2.60;68.59;100301.44;1087768;54;20035;-81
2022/01/31 00:35:08;;;;;;;12.73;5.53;;;;;;;2.56;68.86;100299.06;1087496;54;20026;-80
2022/01/31 00:36:10;;;;;;;15.02;5.45;;;;;;;2.58;68.86;100302.47;1087596;54;20065;-81
2022/01/31 00:37:14;;;;;;;14.77;5.68;;;;;;;2.57;68.86;100295.50;1087700;54;20108;-79
2022/01/31 00:38:15;;;;;;;16.75;5.93;;;;;;;2.59;68.90;100288.34;1087780;54;20034;-79
2022/01/31 00:39:22;;;;;;;13.63;5.65;;;;;;;2.60;69.08;100290.00;1087717;54;20683;-80
2022/01/31 00:40:24;;;;;;;18.30;5.25;;;;;;;2.64;68.86;100284.50;1087736;54;20745;-81
2022/01/31 00:41:28;;;;;;;15.77;5.85;;;;;;;2.79;68.48;100284.53;1087723;54;20058;-80
2022/01/31 00:42:31;;;;;;;15.18;5.68;;;;;;;2.93;68.03;100281.09;1087788;54;20038;-80
2022/01/31 00:43:37;;;;;;;11.23;4.90;;;;;;;3.07;67.46;100280.28;1087746;54;20042;-80
2022/01/31 00:44:45;;;;;;;14.73;5.47;;;;;;;2.88;68.16;100281.38;1090245;31;20659;-80
2022/01/31 00:45:58;;;;;;;14.25;5.40;;;;;;;2.89;68.29;100271.63;1087753;54;20037;-80
2022/01/31 00:47:04;;;;;;;16.85;6.28;;;;;;;2.95;68.05;100271.28;1087785;54;20037;-81
2022/01/31 00:48:15;;;;;;;18.38;6.13;;;;;;;2.85;68.15;100278.91;1087734;54;20030;-81
2022/01/31 00:49:27;;;;;;;14.63;5.47;;;;;;;2.74;68.50;100282.16;1087763;54;20037;-80
2022/01/31 00:50:37;;;;;;;14.63;5.32;;;;;;;2.78;68.25;100280.19;1087739;54;20034;-81
2022/01/31 00:51:38;;;;;;;14.50;5.40;;;;;;;2.76;68.27;100275.00;1087991;39;20578;-80
2022/01/31 00:52:45;;;;;;;12.88;5.07;;;;;;;2.76;68.59;100272.38;1087754;54;20038;-80
2022/01/31 00:53:46;;;;;;;18.20;4.85;;;;;;;2.77;68.17;100274.09;1087768;54;20027;-81
2022/01/31 00:54:53;;;;;;;17.17;4.55;;;;;;;2.74;68.13;100271.59;1087765;54;20042;-80
2022/01/31 00:55:54;;;;;;;14.00;4.90;;;;;;;2.80;68.09;100265.97;1088773;39;20634;-80
2022/01/31 00:56:59;;;;;;;14.07;4.28;;;;;;;2.81;68.02;100266.81;1087696;54;20030;-80
2022/01/31 00:58:00;;;;;;;13.88;5.57;;;;;;;2.80;68.29;100259.84;1087731;54;20042;-81
2022/01/31 00:59:04;;;;;;;12.73;4.45;;;;;;;2.72;68.31;100257.63;1087724;54;20041;-81
2022/01/31 01:00:08;;;;;;;15.60;5.82;;;;;;;2.70;68.39;100256.03;1087677;54;20034;-81
2022/01/31 01:01:13;;;;;;;14.18;4.85;;;;;;;2.72;68.35;100256.81;1087763;54;20035;-81
2022/01/31 01:02:14;;;;;;;15.05;5.10;;;;;;;2.74;68.38;100260.22;1087681;54;20660;-81
2022/01/31 01:03:18;;;;;;;15.13;4.97;;;;;;;2.65;68.34;100261.56;1087791;54;20042;-81
2022/01/31 01:04:20;;;;;;;14.23;5.53;;;;;;;2.65;68.44;100251.84;1087682;54;20034;-82
2022/01/31 01:05:24;;;;;;;17.50;6.30;;;;;;;2.65;68.61;100251.84;1087825;54;20046;-81
2022/01/31 01:06:25;;;;;;;17.38;5.07;;;;;;;2.61;68.68;100254.75;1087824;54;20041;-82
2022/01/31 01:07:29;;;;;;;14.98;5.18;;;;;;;2.62;69.02;100252.06;1087800;54;20038;-81
2022/01/31 01:08:31;;;;;;;21.05;5.78;;;;;;;2.63;68.83;100252.88;1088498;39;20516;-82
2022/01/31 01:09:37;;;;;;;15.77;5.93;;;;;;;2.70;68.64;100258.66;1087799;54;20042;-81
2022/01/31 01:10:44;;;;;;;15.07;4.82;;;;;;;2.58;69.02;100250.53;1087692;54;20038;-81
2022/01/31 01:11:45;;;;;;;13.98;5.03;;;;;;;2.53;69.34;100241.16;1087840;54;20030;-81
2022/01/31 01:12:50;;;;;;;12.77;5.22;;;;;;;2.50;69.06;100237.75;1087788;54;20030;-81
2022/01/31 01:13:52;;;;;;;13.77;4.85;;;;;;;2.59;69.04;100230.28;1089488;46;20299;-81
2022/01/31 01:14:57;;;;;;;19.23;5.78;;;;;;;2.52;69.02;100224.50;1087758;54;20034;-81
2022/01/31 01:15:59;;;;;;;14.85;5.10;;;;;;;2.71;68.72;100218.13;1087824;54;20037;-79
2022/01/31 01:17:03;;;;;;;13.90;4.90;;;;;;;2.71;68.76;100220.78;1088843;46;20036;-80
2022/01/31 01:18:07;;;;;;;15.00;4.80;;;;;;;2.72;68.68;100204.00;1089359;39;20308;-81
2022/01/31 01:19:09;;;;;;;12.75;4.38;;;;;;;2.93;68.35;100193.94;1087879;54;20038;-81
2022/01/31 01:20:15;;;;;;;14.25;4.40;;;;;;;3.04;68.01;100188.88;1087719;54;20041;-81
2022/01/31 01:21:16;;;;;;;8.82;4.05;;;;;;;3.16;67.63;100195.19;1087684;54;20651;-81
2022/01/31 01:22:20;;;;;;;13.70;5.35;;;;;;;3.16;67.43;100195.19;1087711;54;20030;-80
2022/01/31 01:23:24;;;;;;;10.38;3.85;;;;;;;3.30;67.28;100193.50;1087607;54;20045;-81
2022/01/31 01:24:26;;;;;;;12.50;4.07;;;;;;;3.37;67.11;100177.16;1088560;39;20512;-81
2022/01/31 01:25:31;;;;;;;9.32;4.22;;;;;;;3.42;66.84;100177.75;1087728;54;20031;-81
2022/01/31 01:26:36;;;;;;;10.23;4.10;;;;;;;3.42;66.67;100175.09;1087532;54;20049;-80
2022/01/31 01:27:41;;;;;;;11.82;3.92;;;;;;;3.41;66.73;100164.59;1087521;54;20714;-80
2022/01/31 01:28:44;;;;;;;11.98;4.20;;;;;;;3.44;66.68;100169.69;1087567;54;20058;-81
2022/01/31 01:29:48;;;;;;;15.93;4.40;;;;;;;3.45;66.55;100155.53;1087556;54;20027;-81
2022/01/31 01:30:50;;;;;;;11.07;4.18;;;;;;;3.53;66.45;100152.44;1087370;54;20060;-81
2022/01/31 01:31:54;;;;;;;11.35;3.75;;;;;;;3.52;66.26;100141.00;1087604;54;20026;-80
2022/01/31 01:33:07;;;;;;;11.95;3.70;;;;;;;3.54;66.19;100132.97;1090608;39;20575;-80
2022/01/31 01:34:09;;;;;;;10.27;3.40;;;;;;;3.55;66.20;100132.88;1091246;39;20536;-81
2022/01/31 01:35:13;;;;;;;13.98;4.30;;;;;;;3.47;66.07;100131.66;1087657;54;20034;-81
2022/01/31 01:36:14;;;;;;;9.70;4.03;;;;;;;3.55;66.12;100130.22;1087549;54;20707;-80
2022/01/31 01:37:18;;;;;;;13.77;4.78;;;;;;;3.53;66.03;100116.25;1087634;54;20038;-80
2022/01/31 01:38:27;;;;;;;15.88;4.03;;;;;;;3.40;66.18;100108.25;1087719;54;20030;-81
2022/01/31 01:39:31;;;;;;;14.32;4.28;;;;;;;3.40;66.48;100108.25;1087609;54;20042;-81
2022/01/31 01:40:33;;;;;;;12.73;4.53;;;;;;;3.49;66.21;100103.34;1087668;54;20049;-81
2022/01/31 01:41:40;;;;;;;11.55;3.83;;;;;;;3.48;66.17;100105.13;1087673;54;20054;-81
2022/01/31 01:42:41;;;;;;;12.80;4.45;;;;;;;3.40;66.50;100102.97;1087768;54;20042;-80
2022/01/31 01:43:46;;;;;;;12.88;4.00;;;;;;;3.34;66.56;100094.56;1089535;39;20647;-81
2022/01/31 01:44:50;;;;;;;11.60;4.43;;;;;;;3.35;66.70;100091.00;1087600;54;20018;-81
2022/01/31 01:45:56;;;;;;;13.70;4.57;;;;;;;3.31;66.96;100082.41;1087904;46;20084;-80
2022/01/31 01:46:58;;;;;;;16.50;4.88;;;;;;;3.23;67.08;100069.69;1087402;54;20035;-81
2022/01/31 01:48:04;;;;;;;12.40;5.00;;;;;;;3.22;66.87;100067.16;1087697;54;20658;-81
2022/01/31 01:49:05;;;;;;;15.90;5.15;;;;;;;3.14;67.11;100062.34;1089743;39;20637;-81
2022/01/31 01:50:10;;;;;;;13.95;4.97;;;;;;;3.15;67.49;100053.47;1087725;54;20030;-81
2022/01/31 01:51:15;;;;;;;12.50;4.57;;;;;;;3.25;66.97;100048.47;1089147;46;20717;-81
2022/01/31 01:52:18;;;;;;;9.98;4.25;;;;;;;3.39;66.92;100050.22;1087871;54;20037;-81
2022/01/31 01:53:22;;;;;;;14.45;4.95;;;;;;;3.31;67.06;100041.94;1087770;54;20042;-81
2022/01/31 01:54:24;;;;;;;12.13;4.72;;;;;;;3.33;67.00;100047.94;1087750;54;20046;-81
2022/01/31 01:55:28;;;;;;;17.83;4.75;;;;;;;3.23;67.17;100037.13;1087787;54;20019;-81
2022/01/31 01:56:30;;;;;;;14.77;4.90;;;;;;;3.25;67.15;100019.41;1087723;54;20070;-80
2022/01/31 01:57:37;;;;;;;13.38;4.32;;;;;;;3.45;66.77;100007.53;1092402;39;20574;-81
2022/01/31 01:58:42;;;;;;;16.10;4.38;;;;;;;3.45;66.50;99996.13;1087731;54;20640;-81
2022/01/31 01:59:44;;;;;;;19.98;5.35;;;;;;;3.34;66.71;99994.16;1087702;54;20034;-80
2022/01/31 02:00:58;;;;;;;13.05;4.45;;;;;;;3.29;67.08;99999.75;1087605;54;20041;-80
2022/01/31 02:02:00;;;;;;;11.95;5.03;;;;;;;3.36;66.88;99998.38;1087843;39;20604;-80
2022/01/31 02:03:04;;;;;;;11.10;4.10;;;;;;;3.37;66.95;99997.44;1087733;54;20120;-80
2022/01/31 02:04:06;;;;;;;14.25;4.47;;;;;;;3.43;66.46;99989.13;1087731;54;20039;-81
2022/01/31 02:05:11;;;;;;;8.90;3.58;;;;;;;3.32;66.88;99991.63;1087582;54;20031;-80
2022/01/31 02:06:12;;;;;;;13.32;3.70;;;;;;;3.36;66.68;99995.75;1087652;54;20037;-80
2022/01/31 02:07:16;;;;;;;13.52;3.95;;;;;;;3.37;66.61;99986.88;1087671;54;20035;-81
2022/01/31 02:08:19;;;;;;;11.93;3.97;;;;;;;3.34;66.66;99978.31;1087705;54;20035;-80
2022/01/31 02:09:26;;;;;;;17.40;4.45;;;;;;;3.41;66.61;99975.16;1087762;54;20042;-80
2022/01/31 02:10:28;;;;;;;12.40;3.75;;;;;;;3.38;66.92;99969.25;1087681;54;20059;-81
2022/01/31 02:11:32;;;;;;;18.15;4.10;;;;;;;3.49;66.56;99965.88;1087650;54;20046;-80
2022/01/31 02:12:44;;;;;;;14.95;4.63;;;;;;;3.43;66.68;99969.78;1087709;54;20065;-80
2022/01/31 02:13:49;;;;;;;12.15;3.45;;;;;;;3.40;66.89;99970.00;1087633;54;20031;-81
2022/01/31 02:14:51;;;;;;;9.50;3.50;;;;;;;3.52;66.43;99970.97;1087651;54;20042;-81
2022/01/31 02:15:55;;;;;;;11.68;3.90;;;;;;;3.46;66.48;99966.06;1091375;31;20679;-81
2022/01/31 02:16:57;;;;;;;16.45;3.75;;;;;;;3.44;66.84;99963.53;1087709;54;20034;-81
2022/01/31 02:18:02;;;;;;;13.90;4.90;;;;;;;3.31;67.03;99958.22;1087616;54;20061;-81
2022/01/31 02:19:08;;;;;;;16.27;4.78;;;;;;;3.30;67.12;99958.31;1087636;54;20041;-81
2022/01/31 02:20:10;;;;;;;14.43;4.07;;;;;;;3.39;67.05;99955.09;1087637;54;20041;-81
2022/01/31 02:21:17;;;;;;;15.15;3.80;;;;;;;3.33;67.04;99943.13;1087688;54;20034;-81
2022/01/31 02:22:21;;;;;;;14.60;4.20;;;;;;;3.26;67.21;99955.00;1087695;54;20790;-80
2022/01/31 02:23:26;;;;;;;16.13;4.18;;;;;;;3.24;67.28;99956.94;1087552;54;20061;-81
2022/01/31 02:24:30;;;;;;;8.90;3.38;;;;;;;3.28;67.34;99961.06;1087602;54;20027;-81
2022/01/31 02:25:34;;;;;;;13.05;4.07;;;;;;;3.37;66.97;99955.16;1087667;54;20049;-81
2022/01/31 02:26:36;;;;;;;11.45;4.38;;;;;;;3.43;66.97;99951.28;1087658;54;20741;-80
2022/01/31 02:27:41;;;;;;;10.38;3.70;;;;;;;3.36;67.11;99944.69;1087684;54;20034;-81
2022/01/31 02:28:45;;;;;;;12.98;3.88;;;;;;;3.13;67.51;99939.13;1087485;54;20042;-80
2022/01/31 02:29:46;;;;;;;10.35;3.78;;;;;;;3.15;67.78;99934.59;1087585;54;20030;-81
2022/01/31 02:30:51;;;;;;;18.05;4.82;;;;;;;3.23;67.57;99932.28;1087640;54;20046;-80
2022/01/31 02:31:52;;;;;;;15.90;5.28;;;;;;;3.14;68.01;99922.31;1087536;54;21885;-79
2022/01/31 02:32:56;;;;;;;8.32;3.80;;;;;;;3.12;68.08;99914.50;1087620;54;20034;-80
2022/01/31 02:33:58;;;;;;;16.33;4.97;;;;;;;3.05;68.28;99904.44;1087538;54;20049;-80
2022/01/31 02:35:02;;;;;;;12.43;3.70;;;;;;;3.19;68.01;99895.59;1087504;47;20427;-80
2022/01/31 02:36:05;;;;;;;13.98;3.80;;;;;;;3.30;67.42;99892.28;1087096;54;20684;-82
2022/01/31 02:37:12;;;;;;;16.63;4.97;;;;;;;3.39;67.39;99896.94;1086669;54;20026;-81
2022/01/31 02:38:14;;;;;;;9.93;3.65;;;;;;;3.46;67.03;99898.22;1087273;54;20063;-79
2022/01/31 02:39:18;;;;;;;16.77;4.30;;;;;;;3.34;67.22;99894.59;1087485;54;20034;-79
2022/01/31 02:40:20;;;;;;;11.50;3.80;;;;;;;3.30;67.25;99897.56;1087461;54;20034;-81
2022/01/31 02:41:27;;;;;;;21.77;4.97;;;;;;;3.28;67.75;99893.22;1087550;54;20057;-79
2022/01/31 02:42:29;;;;;;;13.30;3.90;;;;;;;3.46;67.05;99887.66;1087418;54;20038;-80
2022/01/31 02:43:35;;;;;;;11.55;4.20;;;;;;;3.36;67.43;99882.13;1087518;54;20039;-81
2022/01/31 02:44:40;;;;;;;17.70;4.15;;;;;;;3.35;67.61;99869.00;1087462;54;20039;-81
2022/01/31 02:45:44;;;;;;;17.20;4.28;;;;;;;3.34;67.31;99865.53;1087323;54;20078;-80
2022/01/31 02:46:52;;;;;;;11.25;3.60;;;;;;;3.31;67.46;99846.41;1087485;54;20031;-80
2022/01/31 02:47:56;;;;;;;15.68;4.43;;;;;;;3.31;67.67;99831.38;1088621;39;20633;-82
2022/01/31 02:49:00;;;;;;;16.02;4.40;;;;;;;3.35;67.61;99824.09;1089264;39;20548;-79
2022/01/31 02:50:06;;;;;;;16.52;4.25;;;;;;;3.48;67.13;99826.75;1087613;47;20039;-80
2022/01/31 02:51:12;;;;;;;13.57;3.97;;;;;;;3.42;67.03;99820.06;1087256;54;20094;-80
2022/01/31 02:52:17;;;;;;;14.50;3.67;;;;;;;3.47;66.50;99825.03;1087273;54;20553;-79
2022/01/31 02:53:26;;;;;;;13.48;3.50;;;;;;;3.51;66.37;99823.91;1088749;39;20517;-80
2022/01/31 02:54:29;;;;;;;10.32;3.15;;;;;;;3.45;66.68;99819.88;1087222;54;20034;-80
2022/01/31 02:55:34;;;;;;;11.25;3.33;;;;;;;3.52;66.56;99822.94;1087019;54;20039;-80
2022/01/31 02:56:37;;;;;;;12.57;3.65;;;;;;;3.41;66.51;99816.59;1087232;54;20031;-79
2022/01/31 02:57:42;;;;;;;13.35;3.65;;;;;;;3.49;66.51;99826.66;1089850;39;20559;-80
2022/01/31 02:58:43;;;;;;;13.15;3.55;;;;;;;3.34;66.71;99835.59;1087753;54;20050;-80
2022/01/31 02:59:49;;;;;;;14.95;4.38;;;;;;;3.41;66.73;99837.75;1087756;54;20771;-80
2022/01/31 03:00:50;;;;;;;13.77;4.35;;;;;;;3.30;67.03;99834.97;1087930;54;20042;-80
2022/01/31 03:01:55;;;;;;;9.98;3.58;;;;;;;3.25;67.17;99821.22;1090006;39;20596;-80
2022/01/31 03:02:56;;;;;;;13.88;4.03;;;;;;;3.26;67.33;99823.75;1087914;54;20772;-80
2022/01/31 03:04:00;;;;;;;12.63;3.78;;;;;;;3.27;67.10;99809.59;1087849;54;20030;-83
2022/01/31 03:05:02;;;;;;;14.50;4.05;;;;;;;3.27;67.33;99806.09;1087876;54;20038;-81
2022/01/31 03:06:08;;;;;;;12.95;4.13;;;;;;;3.27;67.15;99800.81;1087926;54;20035;-81
2022/01/31 03:07:09;;;;;;;16.70;3.72;;;;;;;3.32;67.24;99789.94;1088005;54;20038;-80
2022/01/31 03:08:17;;;;;;;15.95;4.25;;;;;;;3.36;67.03;99789.63;1087948;54;20035;-81
2022/01/31 03:09:19;;;;;;;12.23;3.72;;;;;;;3.30;67.56;99783.94;1087884;54;20467;-80
2022/01/31 03:10:23;;;;;;;12.95;4.45;;;;;;;3.16;67.93;99774.31;1087863;54;20615;-80
2022/01/31 03:11:25;;;;;;;15.38;5.00;;;;;;;3.18;67.80;99770.59;1092398;39;20639;-80
2022/01/31 03:12:29;;;;;;;14.32;4.43;;;;;;;3.37;67.38;99766.69;1087802;54;20869;-81
2022/01/31 03:13:30;;;;;;;14.15;4.03;;;;;;;3.39;67.31;99767.44;1087891;54;20069;-79
2022/01/31 03:14:35;;;;;;;12.48;4.18;;;;;;;3.34;67.42;99764.25;1087916;54;20045;-80
2022/01/31 03:15:36;;;;;;;12.75;3.60;;;;;;;3.34;67.58;99759.84;1087920;54;20030;-81
2022/01/31 03:16:41;;;;;;;12.52;4.38;;;;;;;3.24;67.50;99762.25;1087926;54;20041;-80
2022/01/31 03:17:47;;;;;;;11.55;3.45;;;;;;;3.41;67.17;99757.59;1087922;54;20030;-80
2022/01/31 03:18:51;;;;;;;11.23;3.90;;;;;;;3.48;67.01;99742.16;1087819;54;20030;-80
2022/01/31 03:19:54;;;;;;;12.32;4.38;;;;;;;3.41;67.36;99733.81;1087729;54;20671;-80
2022/01/31 03:20:58;;;;;;;11.88;3.90;;;;;;;3.35;67.38;99728.97;1087823;54;20078;-81
2022/01/31 03:21:59;;;;;;;13.75;4.32;;;;;;;3.48;67.32;99721.03;1087931;54;20035;-80
2022/01/31 03:23:04;;;;;;;12.98;4.50;;;;;;;3.51;67.08;99726.94;1087849;54;20081;-81
2022/01/31 03:24:10;;;;;;;12.80;4.25;;;;;;;3.50;66.98;99713.84;1087833;54;20034;-80
2022/01/31 03:25:15;;;;;;;12.98;4.13;;;;;;;3.45;67.21;99708.88;1087844;54;20030;-79
2022/01/31 03:26:16;;;;;;;12.73;3.95;;;;;;;3.46;67.32;99712.34;1087844;54;20030;-80
2022/01/31 03:27:21;;;;;;;12.07;3.60;;;;;;;3.40;67.24;99703.91;1087966;54;20054;-81
2022/01/31 03:28:25;;;;;;;11.48;3.80;;;;;;;3.45;67.28;99708.88;1088652;46;20034;-80
2022/01/31 03:29:27;;;;;;;11.55;3.90;;;;;;;3.49;67.26;99707.72;1087784;54;20030;-81
2022/01/31 03:30:32;;;;;;;12.40;3.60;;;;;;;3.51;67.19;99719.00;1088067;46;20468;-80
2022/01/31 03:31:34;;;;;;;14.50;3.80;;;;;;;3.62;66.91;99722.69;1088985;39;20914;-81
2022/01/31 03:32:38;;;;;;;11.95;3.95;;;;;;;3.51;67.03;99737.50;1087889;54;20036;-81
2022/01/31 03:33:40;;;;;;;13.02;4.15;;;;;;;3.49;67.28;99739.44;1087826;54;20030;-80
2022/01/31 03:34:44;;;;;;;10.38;3.97;;;;;;;3.46;67.33;99749.34;1087855;54;20094;-80
2022/01/31 03:35:45;;;;;;;11.02;3.65;;;;;;;3.47;67.30;99743.13;1087942;54;20038;-83
2022/01/31 03:36:49;;;;;;;16.23;4.10;;;;;;;3.55;67.18;99743.41;1087939;54;20018;-82
2022/01/31 03:37:51;;;;;;;12.45;3.50;;;;;;;3.49;67.43;99743.84;1087356;54;20014;-82
2022/01/31 03:38:55;;;;;;;13.90;3.95;;;;;;;3.37;67.56;99751.69;1087297;54;20042;-80
2022/01/31 03:39:59;;;;;;;16.90;4.45;;;;;;;3.46;67.50;99750.22;1089517;46;20046;-80
2022/01/31 03:41:03;;;;;;;13.70;3.60;;;;;;;3.41;67.51;99754.94;1087980;54;20018;-81
2022/01/31 03:42:06;;;;;;;14.57;4.05;;;;;;;3.47;67.65;99751.91;1087973;54;20034;-81
2022/01/31 03:43:10;;;;;;;10.77;3.83;;;;;;;3.51;67.13;99749.88;1087931;54;20019;-82
2022/01/31 03:44:12;;;;;;;14.10;3.67;;;;;;;3.54;67.45;99750.53;1087971;54;20022;-81
2022/01/31 03:45:16;;;;;;;11.90;4.13;;;;;;;3.56;67.20;99753.03;1087877;54;20086;-81
2022/01/31 03:46:17;;;;;;;13.38;3.63;;;;;;;3.51;67.53;99745.44;1087874;54;20023;-82
2022/01/31 03:47:23;;;;;;;14.25;3.22;;;;;;;3.55;67.20;99743.41;1089126;46;20061;-81
2022/01/31 03:48:27;;;;;;;11.40;3.33;;;;;;;3.50;67.58;99742.91;1090185;46;20025;-81
2022/01/31 03:49:31;;;;;;;16.02;4.07;;;;;;;3.54;67.28;99747.88;1087930;54;20034;-81
2022/01/31 03:50:33;;;;;;;10.60;3.47;;;;;;;3.49;67.32;99739.44;1089077;46;20039;-81
2022/01/31 03:51:37;;;;;;;14.13;3.30;;;;;;;3.61;67.21;99735.09;1087854;54;20030;-79
2022/01/31 03:52:39;;;;;;;10.27;3.58;;;;;;;3.67;67.15;99747.03;1087866;54;20042;-81
2022/01/31 03:53:43;;;;;;;13.75;3.47;;;;;;;3.77;66.89;99737.50;1087768;54;20030;-81
2022/01/31 03:54:45;;;;;;;15.05;4.15;;;;;;;3.69;66.92;99739.81;1087833;54;20042;-82
2022/01/31 03:55:52;;;;;;;13.75;4.00;;;;;;;3.64;67.08;99731.38;1087821;54;20038;-82
2022/01/31 03:56:54;;;;;;;12.55;3.50;;;;;;;3.63;66.94;99727.03;1087966;54;20033;-81
2022/01/31 03:57:58;;;;;;;12.77;4.78;;;;;;;3.65;67.01;99719.84;1088977;46;20042;-82
2022/01/31 03:59:01;;;;;;;12.40;3.67;;;;;;;3.59;67.11;99723.75;1087873;54;20035;-81
2022/01/31 04:00:08;;;;;;;18.83;5.05;;;;;;;3.61;67.02;99716.56;1088261;46;20074;-81
2022/01/31 04:01:09;;;;;;;13.50;4.18;;;;;;;3.54;67.24;99715.31;1087873;54;20030;-81
2022/01/31 04:02:14;;;;;;;12.57;3.65;;;;;;;3.57;67.27;99710.66;1087928;54;20099;-81
2022/01/31 04:03:15;;;;;;;14.93;3.92;;;;;;;3.72;67.05;99707.88;1087962;54;20035;-81
2022/01/31 04:04:20;;;;;;;13.10;4.65;;;;;;;3.74;67.00;99709.44;1089128;46;20030;-80
2022/01/31 04:05:21;;;;;;;12.32;3.70;;;;;;;3.84;66.73;99691.13;1090490;46;20049;-80
2022/01/31 04:06:26;;;;;;;15.32;4.63;;;;;;;3.75;66.87;99694.44;1087787;54;20096;-81
2022/01/31 04:07:27;;;;;;;14.63;4.20;;;;;;;3.78;66.95;99688.91;1087947;54;20034;-80
2022/01/31 04:08:32;;;;;;;16.08;3.88;;;;;;;3.72;66.94;99686.72;1087833;54;20038;-80
2022/01/31 04:09:33;;;;;;;12.93;4.00;;;;;;;3.73;67.15;99685.78;1087742;54;20034;-81
2022/01/31 04:10:38;;;;;;;11.13;4.05;;;;;;;3.67;67.12;99676.47;1087688;54;20057;-80
2022/01/31 04:11:43;;;;;;;12.73;4.25;;;;;;;3.70;66.95;99664.81;1087627;54;20046;-80
2022/01/31 04:12:47;;;;;;;14.18;4.47;;;;;;;3.69;66.99;99671.06;1087145;54;20037;-80
2022/01/31 04:13:51;;;;;;;12.65;3.90;;;;;;;3.67;67.12;99665.91;1087403;54;20043;-80
2022/01/31 04:14:53;;;;;;;11.57;3.58;;;;;;;3.85;66.68;99657.59;1090433;39;20238;-80
2022/01/31 04:15:57;;;;;;;12.15;3.78;;;;;;;3.92;66.33;99653.53;1087464;54;20045;-80
2022/01/31 04:16:59;;;;;;;11.82;3.80;;;;;;;3.90;66.33;99651.00;1087341;54;20035;-80
2022/01/31 04:18:04;;;;;;;12.63;4.45;;;;;;;3.78;66.49;99651.91;1089443;39;20500;-81
2022/01/31 04:19:05;;;;;;;12.50;3.92;;;;;;;3.77;66.69;99642.31;1087722;54;20039;-79
2022/01/31 04:20:10;;;;;;;12.25;3.75;;;;;;;3.80;66.81;99633.28;1087564;54;20030;-79
2022/01/31 04:21:13;;;;;;;10.77;3.58;;;;;;;3.95;66.20;99624.22;1087546;54;20037;-80
2022/01/31 04:22:20;;;;;;;10.82;3.83;;;;;;;3.96;66.04;99619.81;1085399;54;20038;-78
2022/01/31 04:23:23;;;;;;;14.38;4.18;;;;;;;3.87;66.24;99632.72;1085083;54;20041;-79
2022/01/31 04:24:32;;;;;;;7.22;3.10;;;;;;;4.03;66.13;99621.03;1085135;54;20045;-79
2022/01/31 04:25:43;;;;;;;11.63;3.50;;;;;;;4.04;65.96;99618.25;1084722;54;20067;-79
2022/01/31 04:26:57;;;;;;;;;;;;;;;3.90;66.06;99627.22;1086070;39;20436;-79
2022/01/31 04:28:14;;;;;;;16.42;4.47;;;;;;;3.98;66.15;99604.63;1086222;31;20419;-78
2022/01/31 04:29:19;;;;;;;12.88;3.85;;;;;;;3.92;66.24;99618.31;1084515;54;20045;-79
2022/01/31 04:30:20;;;;;;;13.77;3.30;;;;;;;3.97;66.10;99606.44;1085226;54;20063;-78
2022/01/31 04:31:38;;;;;;;12.27;3.70;;;;;;;4.13;65.81;99605.31;1084821;54;20122;-79
2022/01/31 04:32:39;;;;;;;8.25;2.53;;;;;;;4.26;65.61;99607.88;1085289;54;20038;-80
2022/01/31 04:33:45;;;;;;;13.23;4.15;;;;;;;4.20;65.39;99607.38;1085325;54;20035;-79
2022/01/31 04:34:46;;;;;;;11.32;3.85;;;;;;;4.01;66.10;99597.34;1085109;54;20099;-78
2022/01/31 04:35:51;;;;;;;11.73;3.58;;;;;;;4.04;65.87;99586.53;1085780;39;20651;-80
2022/01/31 04:36:55;;;;;;;14.07;3.88;;;;;;;4.00;66.26;99585.06;1085783;54;20038;-79
2022/01/31 04:37:57;;;;;;;11.27;3.72;;;;;;;4.09;66.09;99577.41;1085186;54;20050;-79
2022/01/31 04:39:01;;;;;;;12.05;4.15;;;;;;;4.05;66.10;99588.22;1085131;54;20045;-78
2022/01/31 04:40:12;;;;;;;10.13;3.80;;;;;;;4.12;66.02;99582.44;1084895;54;20043;-78
2022/01/31 04:41:15;;;;;;;12.32;4.03;;;;;;;4.10;66.11;99576.47;1085214;54;20058;-78
2022/01/31 04:42:22;;;;;;;8.82;3.05;;;;;;;4.08;65.88;99570.44;1085254;54;20081;-79
2022/01/31 04:43:24;;;;;;;12.23;3.53;;;;;;;4.04;66.39;99562.72;1086508;54;20042;-78
2022/01/31 04:44:28;;;;;;;10.50;3.88;;;;;;;4.09;66.21;99562.38;1087728;46;20050;-78
2022/01/31 04:45:30;;;;;;;14.00;3.85;;;;;;;4.03;66.35;99557.53;1087116;47;20034;-79
2022/01/31 04:46:34;;;;;;;12.25;4.28;;;;;;;4.18;65.71;99532.56;1085661;54;20035;-79
2022/01/31 04:47:35;;;;;;;10.60;3.58;;;;;;;4.04;66.18;99530.13;1085786;54;20038;-79
2022/01/31 04:48:39;;;;;;;8.80;3.70;;;;;;;4.05;66.20;99535.31;1085524;54;20572;-79
2022/01/31 04:49:41;;;;;;;13.80;4.43;;;;;;;4.09;66.29;99519.22;1085359;54;20039;-79
2022/01/31 04:50:46;;;;;;;10.85;3.72;;;;;;;4.15;66.06;99519.59;1085012;54;20613;-78
2022/01/31 04:51:48;;;;;;;12.27;4.20;;;;;;;4.08;66.26;99513.06;1085443;39;20280;-79
2022/01/31 04:52:52;;;;;;;10.85;3.55;;;;;;;4.19;66.04;99505.16;1084978;54;20062;-79
2022/01/31 04:53:56;;;;;;;14.30;3.83;;;;;;;4.13;66.32;99505.63;1085059;54;20451;-78
2022/01/31 04:54:57;;;;;;;11.55;3.28;;;;;;;4.28;65.85;99506.25;1085333;54;20043;-79
2022/01/31 04:56:02;;;;;;;13.18;3.53;;;;;;;4.33;65.68;99493.50;1085745;54;20038;-79
2022/01/31 04:57:05;;;;;;;9.57;3.85;;;;;;;4.25;65.95;99495.06;1085715;54;20061;-79
2022/01/31 04:58:12;;;;;;;9.35;3.55;;;;;;;4.34;65.83;99491.72;1085960;54;20038;-79
2022/01/31 04:59:13;;;;;;;10.57;2.58;;;;;;;4.29;66.17;99484.13;1086511;46;20061;-80
2022/01/31 05:00:18;;;;;;;14.63;3.33;;;;;;;4.26;65.63;99478.22;1086166;54;20038;-78
2022/01/31 05:01:19;;;;;;;13.95;3.28;;;;;;;4.27;65.99;99485.19;1085954;54;20042;-79